Time;durP1;ratioP1;P1;durP2;ratioP2;P2;SDS_P1;SDS_P2;PMS_P1;PMS_P2;Temp;Humidity;BMP_temperature;BMP_pressure;BME280_temperature;BME280_humidity;BME280_pressure;Samples;Min_cycle;Max_cycle;Signal;HPM_P1;HPM_P2
2023/07/31 00:00:46;;;;;;;2.27;1.52;;;;;;;17.82;100.00;100148.81;5063083;57;1141086;-66
2023/07/31 00:05:53;;;;;;;1.77;1.40;;;;;;;17.74;100.00;100155.52;5043117;57;1140985;-66
2023/07/31 00:10:58;;;;;;;4.40;1.70;;;;;;;17.68;100.00;100162.09;5082645;56;1141062;-65
2023/07/31 00:16:04;;;;;;;2.62;2.24;;;;;;;17.64;100.00;100164.77;5138877;56;1140983;-66
2023/07/31 00:21:09;;;;;;;2.07;1.80;;;;;;;17.65;100.00;100163.27;5127819;56;1141053;-66
2023/07/31 00:26:16;;;;;;;4.30;1.70;;;;;;;17.66;100.00;100154.23;5101828;56;1140598;-67
2023/07/31 00:31:21;;;;;;;2.46;1.50;;;;;;;17.66;100.00;100162.77;5063221;56;1140888;-66
2023/07/31 00:36:27;;;;;;;3.20;1.50;;;;;;;17.63;100.00;100170.59;5043826;57;1140911;-65
2023/07/31 00:41:32;;;;;;;1.75;1.65;;;;;;;17.61;100.00;100177.95;5043565;57;1140790;-66
2023/07/31 00:46:40;;;;;;;3.72;1.47;;;;;;;17.62;100.00;100176.11;5078414;56;1140612;-65
2023/07/31 00:51:45;;;;;;;3.40;1.47;;;;;;;17.55;100.00;100169.30;5148515;56;1140964;-66
2023/07/31 00:56:54;;;;;;;1.63;1.53;;;;;;;17.50;100.00;100168.97;5132700;56;1140701;-66
2023/07/31 01:02:00;;;;;;;2.85;1.70;;;;;;;17.43;100.00;100168.81;5141583;56;1140725;-66
2023/07/31 01:07:29;;;;;;;2.42;1.70;;;;;;;17.38;100.00;100169.02;5138582;56;1140678;-66
2023/07/31 01:12:37;;;;;;;4.35;1.87;;;;;;;17.35;100.00;100174.19;4937912;58;1140836;-66
2023/07/31 01:17:44;;;;;;;1.95;1.57;;;;;;;17.33;100.00;100166.01;4937917;58;1140812;-66
2023/07/31 01:23:30;;;;;;;4.23;1.70;;;;;;;17.26;100.00;100172.56;4938190;58;1141049;-66
2023/07/31 01:28:59;;;;;;;2.87;1.90;;;;;;;17.25;100.00;100166.05;4945317;57;1140911;-68
2023/07/31 01:34:05;;;;;;;2.47;1.60;;;;;;;17.22;100.00;100155.19;5027727;57;1140765;-66
2023/07/31 01:39:11;;;;;;;4.10;1.97;;;;;;;17.18;100.00;100161.87;5017809;57;1141048;-66
2023/07/31 01:44:17;;;;;;;4.40;2.23;;;;;;;17.13;100.00;100161.03;5018658;57;1140860;-66
2023/07/31 01:49:22;;;;;;;1.60;1.50;;;;;;;17.10;100.00;100167.23;5065170;56;1140813;-66
2023/07/31 01:54:28;;;;;;;4.28;1.98;;;;;;;17.10;100.00;100156.55;5056578;57;1140570;-66
2023/07/31 01:59:34;;;;;;;3.33;2.13;;;;;;;17.13;100.00;100164.20;5055997;57;1140876;-66
2023/07/31 02:04:40;;;;;;;7.23;2.30;;;;;;;17.04;100.00;100163.39;5056174;57;1140854;-66
2023/07/31 02:09:47;;;;;;;3.93;2.27;;;;;;;17.04;100.00;100165.23;5076204;57;1140666;-67
2023/07/31 02:14:53;;;;;;;5.87;2.22;;;;;;;16.96;100.00;100166.06;5056390;57;1140751;-66
2023/07/31 02:19:58;;;;;;;6.17;1.87;;;;;;;16.93;100.00;100173.60;5056473;57;1141041;-66
2023/07/31 02:25:04;;;;;;;2.22;1.57;;;;;;;16.90;100.00;100172.59;5074895;56;1140837;-66
2023/07/31 02:30:11;;;;;;;3.77;1.87;;;;;;;16.90;100.00;100177.44;5034924;56;1141051;-66
2023/07/31 02:35:18;;;;;;;2.20;2.00;;;;;;;16.90;100.00;100170.76;5031687;57;1141050;-66
2023/07/31 02:40:25;;;;;;;5.53;1.83;;;;;;;16.94;100.00;100159.25;5051746;57;1140630;-66
2023/07/31 02:45:30;;;;;;;2.10;1.90;;;;;;;16.95;100.00;100164.92;4992117;57;1140751;-66
2023/07/31 02:50:36;;;;;;;3.17;1.77;;;;;;;16.89;100.00;100166.42;5032918;57;1140643;-67
2023/07/31 02:55:43;;;;;;;2.33;2.03;;;;;;;16.87;100.00;100166.58;5043125;57;1140767;-67
2023/07/31 03:00:48;;;;;;;5.60;1.97;;;;;;;16.82;100.00;100167.58;5063157;56;1149224;-66
2023/07/31 03:05:54;;;;;;;4.83;2.45;;;;;;;16.76;100.00;100168.77;5042898;57;1140774;-66
2023/07/31 03:11:00;;;;;;;3.70;1.83;;;;;;;16.69;100.00;100168.59;5043329;57;1141082;-66
2023/07/31 03:16:06;;;;;;;6.25;2.22;;;;;;;16.65;100.00;100172.58;5063206;57;1140790;-65
2023/07/31 03:21:11;;;;;;;4.87;2.10;;;;;;;16.64;100.00;100162.09;5043767;57;1141108;-65
2023/07/31 03:26:17;;;;;;;4.83;2.33;;;;;;;16.63;100.00;100179.12;5043178;57;1140967;-65
2023/07/31 03:31:23;;;;;;;3.60;2.00;;;;;;;16.56;100.00;100184.73;5063532;56;1141083;-66
2023/07/31 03:36:28;;;;;;;4.93;2.33;;;;;;;16.54;100.00;100184.40;5043352;57;1141021;-65
2023/07/31 03:41:34;;;;;;;1.80;1.70;;;;;;;16.52;100.00;100173.05;5097048;56;1141051;-66
2023/07/31 03:46:40;;;;;;;2.40;2.10;;;;;;;16.53;100.00;100166.71;5128169;56;1140686;-66
2023/07/31 03:51:46;;;;;;;2.07;1.97;;;;;;;16.51;100.00;100164.70;5155175;56;1140901;-66
2023/07/31 03:56:51;;;;;;;7.87;2.07;;;;;;;16.47;100.00;100168.73;5139181;56;1140811;-66
2023/07/31 04:01:57;;;;;;;5.00;2.02;;;;;;;16.44;100.00;100174.39;5107219;56;1140872;-66
2023/07/31 04:07:02;;;;;;;2.80;2.10;;;;;;;16.41;100.00;100176.55;5126997;56;1140838;-66
2023/07/31 04:12:08;;;;;;;3.23;2.07;;;;;;;16.41;100.00;100172.55;5053119;56;1141007;-65
2023/07/31 04:17:14;;;;;;;2.90;1.97;;;;;;;16.42;100.00;100172.87;5079834;56;1140853;-65
2023/07/31 04:22:20;;;;;;;6.43;1.90;;;;;;;16.46;100.00;100174.23;5073931;57;1140997;-65
2023/07/31 04:27:26;;;;;;;3.23;1.90;;;;;;;16.46;100.00;100174.23;5055279;56;1140770;-66
2023/07/31 04:32:32;;;;;;;5.30;2.00;;;;;;;16.34;100.00;100163.05;5053867;56;1140843;-66
2023/07/31 04:37:38;;;;;;;3.53;2.10;;;;;;;16.39;100.00;100165.20;5079707;56;1140949;-65
2023/07/31 04:42:44;;;;;;;6.47;2.33;;;;;;;16.40;100.00;100170.87;5073586;57;1140888;-66
2023/07/31 04:47:49;;;;;;;4.27;2.27;;;;;;;16.41;100.00;100158.70;5089340;56;1140794;-66
2023/07/31 04:52:55;;;;;;;4.73;2.27;;;;;;;16.46;100.00;100175.06;5091407;56;1140980;-66
2023/07/31 04:58:02;;;;;;;4.90;2.83;;;;;;;16.48;100.00;100174.90;5142914;56;1140938;-66
2023/07/31 05:03:08;;;;;;;11.33;2.73;;;;;;;16.49;100.00;100174.73;5159303;56;1140756;-66
2023/07/31 05:08:13;;;;;;;4.00;1.90;;;;;;;16.49;100.00;100174.73;5072297;56;1142929;-66
2023/07/31 05:13:19;;;;;;;4.93;2.27;;;;;;;16.53;100.00;100165.38;5192863;56;1140826;-66
2023/07/31 05:18:25;;;;;;;3.57;1.90;;;;;;;16.62;100.00;100174.74;5134731;56;1141042;-65
2023/07/31 05:23:32;;;;;;;5.87;2.40;;;;;;;16.69;100.00;100157.06;5062098;56;1140733;-66
2023/07/31 05:28:38;;;;;;;2.57;2.33;;;;;;;16.74;100.00;100160.92;5008919;57;1140730;-66
2023/07/31 05:33:43;;;;;;;12.07;2.60;;;;;;;16.78;100.00;100164.93;5158040;56;1140928;-65
2023/07/31 05:38:49;;;;;;;4.00;2.30;;;;;;;16.90;100.00;100153.39;5090743;56;1142963;-66
2023/07/31 05:43:54;;;;;;;6.70;2.47;;;;;;;17.01;100.00;100147.70;5054643;56;1140796;-65
2023/07/31 05:49:01;;;;;;;8.34;2.64;;;;;;;17.02;100.00;100145.36;5134114;56;1140521;-67
2023/07/31 05:54:07;;;;;;;4.87;2.22;;;;;;;17.21;100.00;100146.83;5121247;56;1140562;-65
2023/07/31 05:59:14;;;;;;;4.37;2.23;;;;;;;17.36;100.00;100150.47;5083120;56;1140691;-66
2023/07/31 06:04:20;;;;;;;3.17;2.27;;;;;;;17.43;100.00;100159.45;5074332;56;1140947;-66
2023/07/31 06:09:25;;;;;;;3.93;2.50;;;;;;;17.36;100.00;100165.17;5061479;56;1140757;-66
2023/07/31 06:14:31;;;;;;;3.70;2.20;;;;;;;17.35;100.00;100165.34;5053949;56;1140776;-66
2023/07/31 06:19:37;;;;;;;11.22;2.25;;;;;;;17.43;100.00;100152.77;5057469;56;1140705;-67
2023/07/31 06:24:43;;;;;;;4.53;2.23;;;;;;;17.50;100.00;100154.27;5121167;56;1142881;-66
2023/07/31 06:29:48;;;;;;;2.50;2.00;;;;;;;17.55;100.00;100144.73;5098075;56;1140647;-67
2023/07/31 06:34:54;;;;;;;3.23;2.30;;;;;;;17.76;100.00;100130.77;5058309;56;1140838;-66
2023/07/31 06:39:59;;;;;;;6.07;2.33;;;;;;;17.76;100.00;100130.77;5091025;56;1140408;-67
2023/07/31 06:45:06;;;;;;;9.60;2.05;;;;;;;17.88;100.00;100134.72;5054096;56;1140883;-66
2023/07/31 06:50:14;;;;;;;3.57;2.27;;;;;;;18.05;100.00;100135.47;5054479;56;1140661;-67
2023/07/31 06:55:21;;;;;;;3.72;1.55;;;;;;;18.16;100.00;100139.09;5081757;56;1141261;-66
2023/07/31 07:00:28;;;;;;;3.42;1.98;;;;;;;18.32;100.00;100135.48;5089301;56;1140635;-65
2023/07/31 07:05:34;;;;;;;5.53;2.65;;;;;;;18.45;100.00;100137.05;5070997;56;1140667;-65
2023/07/31 07:10:39;;;;;;;2.80;1.65;;;;;;;18.59;100.00;100137.64;5103205;56;1140666;-66
2023/07/31 07:15:50;;;;;;;5.70;2.15;;;;;;;18.71;100.00;100133.18;5078045;57;1140621;-66
2023/07/31 07:20:58;;;;;;;2.20;1.57;;;;;;;18.77;100.00;100121.75;5126346;56;1140614;-66
2023/07/31 07:26:03;;;;;;;5.95;1.98;;;;;;;18.96;100.00;100114.52;5092769;56;1140938;-66
2023/07/31 07:31:09;;;;;;;4.78;1.85;;;;;;;19.00;100.00;100110.45;5079683;56;1141180;-66
2023/07/31 07:36:14;;;;;;;2.90;1.60;;;;;;;19.16;100.00;100118.84;5059217;56;1141154;-66
2023/07/31 07:41:20;;;;;;;2.15;1.62;;;;;;;19.36;100.00;100121.81;5060401;55;1140804;-67
2023/07/31 07:46:25;;;;;;;10.15;2.37;;;;;;;19.59;100.00;100115.33;5082553;56;1140680;-66
2023/07/31 07:51:31;;;;;;;4.60;1.87;;;;;;;19.87;100.00;100126.70;5134470;56;1142841;-65
2023/07/31 07:56:38;;;;;;;4.22;2.00;;;;;;;20.03;100.00;100128.66;5084623;56;1140928;-65
2023/07/31 08:01:43;;;;;;;6.30;2.05;;;;;;;20.06;100.00;100135.50;5059089;57;1140809;-66
2023/07/31 08:06:49;;;;;;;10.03;2.50;;;;;;;19.82;100.00;100123.27;5084032;56;1140982;-65
2023/07/31 08:11:57;;;;;;;5.00;2.50;;;;;;;19.69;100.00;100120.94;5058240;57;1142819;-65
2023/07/31 08:17:02;;;;;;;5.60;2.20;;;;;;;19.63;100.00;100134.58;5065020;56;1140751;-66
2023/07/31 08:22:08;;;;;;;4.72;2.00;;;;;;;19.56;100.00;100127.77;5077571;57;1140934;-65
2023/07/31 08:27:14;;;;;;;12.88;3.35;;;;;;;19.46;100.00;100126.38;5086889;56;1141022;-66
2023/07/31 08:32:19;;;;;;;5.47;2.73;;;;;;;19.32;100.00;100126.70;5103464;56;1142876;-65
2023/07/31 08:37:25;;;;;;;8.33;2.77;;;;;;;19.23;100.00;100124.63;5121831;56;1140687;-67
2023/07/31 08:42:34;;;;;;;9.13;3.67;;;;;;;19.17;100.00;100134.74;5101884;56;1140848;-65
2023/07/31 08:47:40;;;;;;;6.70;1.85;;;;;;;19.15;100.00;100132.75;5095956;56;1140673;-65
2023/07/31 08:52:51;;;;;;;6.28;3.05;;;;;;;19.13;100.00;100129.92;5095034;56;1140695;-65
2023/07/31 08:57:58;;;;;;;6.42;2.47;;;;;;;19.15;100.00;100112.64;5115330;56;1140869;-64
2023/07/31 09:03:12;;;;;;;8.58;3.56;;;;;;;19.04;100.00;100118.97;5060136;56;1140648;-67
2023/07/31 09:08:21;;;;;;;8.27;3.37;;;;;;;18.93;100.00;100114.91;5096378;55;1140880;-66
2023/07/31 09:13:29;;;;;;;7.60;3.47;;;;;;;18.95;100.00;100114.19;5077564;56;1140609;-66
2023/07/31 09:18:56;;;;;;;7.90;2.90;;;;;;;18.95;100.00;100118.20;5037311;56;1140730;-65
2023/07/31 09:24:02;;;;;;;7.67;3.30;;;;;;;18.81;100.00;100111.81;5043441;56;1140561;-66
2023/07/31 09:29:11;;;;;;;6.80;2.45;;;;;;;18.82;100.00;100105.95;5043014;56;1141206;-67
2023/07/31 09:34:17;;;;;;;9.70;2.83;;;;;;;18.93;100.00;100102.84;5097300;56;1140749;-65
2023/07/31 09:39:23;;;;;;;4.60;2.08;;;;;;;19.03;100.00;100091.84;5073469;56;1140840;-66
2023/07/31 09:44:42;;;;;;;4.37;2.50;;;;;;;19.04;100.00;100098.36;5043382;56;1140651;-66
2023/07/31 09:49:48;;;;;;;11.85;2.70;;;;;;;19.19;100.00;100089.81;5045153;56;1140795;-65
2023/07/31 09:54:54;;;;;;;12.45;3.17;;;;;;;19.26;100.00;100085.36;5072548;56;1142572;-65
2023/07/31 10:00:01;;;;;;;5.60;1.67;;;;;;;19.39;100.00;100081.22;5057624;56;1142906;-67
2023/07/31 10:05:09;;;;;;;2.95;1.82;;;;;;;19.28;100.00;100083.33;5097850;56;1140800;-64
2023/07/31 10:10:16;;;;;;;4.45;2.22;;;;;;;19.15;100.00;100097.06;5086197;56;1141025;-65
2023/07/31 10:15:22;;;;;;;8.95;3.00;;;;;;;18.94;100.00;100089.77;5012464;57;1140914;-66
2023/07/31 10:20:29;;;;;;;9.25;3.20;;;;;;;18.73;100.00;100101.19;5049954;56;1140969;-66
2023/07/31 10:25:35;;;;;;;7.62;2.52;;;;;;;18.27;100.00;100115.92;5077181;57;1140757;-65
2023/07/31 10:30:42;;;;;;;8.98;3.15;;;;;;;17.93;100.00;100105.61;5100326;56;1140863;-64
2023/07/31 10:35:49;;;;;;;5.53;3.50;;;;;;;17.79;100.00;100101.00;5222875;56;1140643;-66
2023/07/31 10:40:59;;;;;;;7.47;3.12;;;;;;;17.73;100.00;100095.52;5218735;56;1140718;-66
2023/07/31 10:46:12;;;;;;;3.90;2.62;;;;;;;17.89;100.00;100089.56;5155262;56;1140580;-65
2023/07/31 10:51:18;;;;;;;4.12;2.58;;;;;;;18.00;100.00;100078.98;5226502;56;1140584;-66
2023/07/31 10:56:27;;;;;;;5.53;3.47;;;;;;;18.00;100.00;100078.98;5176560;56;1140633;-66
2023/07/31 11:02:02;;;;;;;6.75;2.47;;;;;;;18.13;100.00;100072.53;5186246;56;1140476;-65
2023/07/31 11:07:06;;;;;;;4.83;2.30;;;;;;;18.24;100.00;100067.26;5150288;57;1140526;-64
2023/07/31 11:12:12;;;;;;;3.27;1.98;;;;;;;18.30;100.00;100065.22;5128062;57;1140758;-65
2023/07/31 11:17:17;;;;;;;5.28;2.12;;;;;;;18.33;100.00;100059.50;5155088;56;1140613;-65
2023/07/31 11:22:23;;;;;;;6.37;2.55;;;;;;;18.34;100.00;100053.11;5154705;57;1140897;-65
2023/07/31 11:27:30;;;;;;;6.33;2.65;;;;;;;18.24;100.00;100049.86;5174059;56;1140939;-66
2023/07/31 11:32:37;;;;;;;4.95;2.20;;;;;;;18.20;100.00;100037.84;5172720;57;1140685;-64
2023/07/31 11:37:45;;;;;;;2.55;1.90;;;;;;;18.30;100.00;100037.10;5132343;57;1140989;-66
2023/07/31 11:42:52;;;;;;;4.70;2.23;;;;;;;18.29;100.00;100034.09;5117983;56;1140657;-67
2023/07/31 11:47:58;;;;;;;4.83;2.12;;;;;;;18.30;100.00;100034.93;5114144;57;1140861;-65
2023/07/31 11:53:07;;;;;;;5.10;2.10;;;;;;;18.18;100.00;100026.50;5153116;57;1140534;-65
2023/07/31 11:58:14;;;;;;;3.58;2.30;;;;;;;18.12;100.00;100031.22;5118003;57;1140946;-65
2023/07/31 12:03:20;;;;;;;4.53;2.20;;;;;;;18.17;100.00;100016.81;5082059;56;1141118;-66
2023/07/31 12:08:27;;;;;;;4.28;2.12;;;;;;;18.16;100.00;100006.61;5086869;56;1140949;-67
2023/07/31 12:13:35;;;;;;;5.08;2.02;;;;;;;18.20;100.00;100007.05;5042452;56;1140787;-65
2023/07/31 12:18:41;;;;;;;4.53;1.90;;;;;;;18.17;100.00;100006.94;5045491;56;1140826;-65
2023/07/31 12:23:46;;;;;;;3.60;1.67;;;;;;;18.15;100.00;100004.94;5075617;56;1140444;-67
2023/07/31 12:28:58;;;;;;;1.47;1.20;;;;;;;18.14;100.00;99995.75;5062085;56;1140933;-66
2023/07/31 12:34:20;;;;;;;2.27;1.37;;;;;;;18.08;100.00;99998.63;5047236;56;1139113;-66
2023/07/31 12:39:26;;;;;;;2.10;1.52;;;;;;;18.04;100.00;99993.30;5064423;55;1138555;-65
2023/07/31 12:44:31;;;;;;;2.25;1.65;;;;;;;18.01;100.00;99996.87;5042799;57;1138626;-65
2023/07/31 12:49:37;;;;;;;1.00;1.00;;;;;;;18.08;100.00;99991.94;4963980;58;1138843;-65
2023/07/31 12:54:46;;;;;;;5.12;2.02;;;;;;;18.16;100.00;99991.05;5119052;56;1138522;-67
2023/07/31 12:59:52;;;;;;;1.52;1.40;;;;;;;18.22;100.00;99977.76;5061271;56;1138749;-65
2023/07/31 13:04:57;;;;;;;5.53;2.40;;;;;;;18.36;100.00;99985.99;4953085;57;1138571;-65
2023/07/31 13:10:03;;;;;;;2.58;1.98;;;;;;;18.55;100.00;99973.42;5120071;56;1138738;-66
2023/07/31 13:15:09;;;;;;;1.66;1.56;;;;;;;18.63;100.00;99972.55;5151541;56;1138580;-65
2023/07/31 13:20:15;;;;;;;4.95;2.70;;;;;;;18.53;100.00;99978.13;5112568;56;1138808;-66
2023/07/31 13:25:20;;;;;;;1.80;1.70;;;;;;;18.48;100.00;99976.53;5034714;56;1138780;-65
2023/07/31 13:30:27;;;;;;;2.22;2.08;;;;;;;18.46;100.00;99962.48;5092926;56;1138508;-67
2023/07/31 13:35:33;;;;;;;4.67;2.00;;;;;;;18.46;100.00;99957.13;5091849;56;1138557;-66
2023/07/31 13:40:38;;;;;;;5.35;2.27;;;;;;;18.52;100.00;99946.50;5040114;56;1138661;-66
2023/07/31 13:45:44;;;;;;;2.65;2.45;;;;;;;18.56;100.00;99941.11;5026434;56;1138797;-65
2023/07/31 13:50:49;;;;;;;4.00;2.47;;;;;;;18.64;100.00;99941.53;5058098;56;1138672;-65
2023/07/31 13:55:55;;;;;;;6.62;3.25;;;;;;;18.90;100.00;99929.02;5037067;56;1138925;-66
2023/07/31 14:01:01;;;;;;;3.33;2.35;;;;;;;18.93;100.00;99939.37;5088365;56;1139107;-67
2023/07/31 14:06:06;;;;;;;1.98;1.80;;;;;;;18.92;100.00;99942.56;5084842;56;1138778;-65
2023/07/31 14:11:12;;;;;;;4.50;2.42;;;;;;;18.94;100.00;99941.84;5067195;55;1138731;-66
2023/07/31 14:16:18;;;;;;;2.52;2.33;;;;;;;18.97;100.00;99944.15;5065323;56;1227086;-66
2023/07/31 14:21:23;;;;;;;2.85;2.65;;;;;;;18.98;100.00;99947.66;5056475;57;1138879;-67
2023/07/31 14:26:29;;;;;;;9.05;2.62;;;;;;;19.02;100.00;99942.25;5077217;56;1139387;-67
2023/07/31 14:31:34;;;;;;;3.72;2.40;;;;;;;19.03;100.00;99944.43;5029263;56;1219442;-66
2023/07/31 14:36:40;;;;;;;3.52;2.90;;;;;;;19.05;100.00;99935.19;4968886;57;1180186;-67
2023/07/31 14:41:46;;;;;;;2.90;2.50;;;;;;;19.13;100.00;99928.36;4987567;58;1217778;-66
2023/07/31 14:46:51;;;;;;;4.67;2.52;;;;;;;19.23;100.00;99924.06;5031723;57;1240694;-67
2023/07/31 14:51:57;;;;;;;4.50;2.80;;;;;;;19.31;100.00;99919.91;5042495;57;1232082;-66
2023/07/31 14:57:03;;;;;;;3.87;2.12;;;;;;;19.34;100.00;99912.83;5071504;56;1244597;-66
2023/07/31 15:02:11;;;;;;;2.55;2.25;;;;;;;19.37;100.00;99908.94;5038887;56;1237833;-66
2023/07/31 15:07:16;;;;;;;4.12;3.02;;;;;;;19.43;100.00;99908.16;5039811;56;1251865;-65
2023/07/31 15:12:22;;;;;;;2.65;2.12;;;;;;;19.45;100.00;99902.92;5033982;56;1138863;-67
2023/07/31 15:17:29;;;;;;;15.60;2.83;;;;;;;19.55;100.00;99894.10;5055050;57;1250196;-66
2023/07/31 15:22:35;;;;;;;2.58;2.22;;;;;;;19.87;100.00;99889.19;5048249;56;1254441;-67
2023/07/31 15:27:41;;;;;;;4.08;2.90;;;;;;;20.16;100.00;99889.53;5042192;55;1138896;-66
2023/07/31 15:32:48;;;;;;;3.40;2.85;;;;;;;20.36;100.00;99881.10;5127450;56;1139019;-67
2023/07/31 15:37:53;;;;;;;4.12;2.52;;;;;;;20.54;100.00;99869.84;5057073;57;1138663;-66
2023/07/31 15:43:00;;;;;;;4.27;2.90;;;;;;;20.79;100.00;99872.31;5057266;57;1138650;-66
2023/07/31 15:48:06;;;;;;;3.83;2.58;;;;;;;20.95;100.00;99863.91;5076640;57;1139033;-67
2023/07/31 15:53:11;;;;;;;5.75;3.00;;;;;;;20.96;100.00;99858.01;5057042;57;1138470;-67
2023/07/31 15:58:17;;;;;;;4.28;3.85;;;;;;;20.86;100.00;99849.00;5056598;57;1138916;-66
2023/07/31 16:03:23;;;;;;;9.53;4.20;;;;;;;20.82;100.00;99843.70;5076559;57;1138818;-66
2023/07/31 16:08:28;;;;;;;3.47;2.70;;;;;;;20.87;100.00;99842.59;5056787;57;1138901;-66
2023/07/31 16:13:34;;;;;;;3.87;2.50;;;;;;;20.89;100.00;99838.36;5049019;56;1138913;-67
2023/07/31 16:18:40;;;;;;;7.55;2.87;;;;;;;20.90;100.00;99838.67;5043007;57;1138885;-68
2023/07/31 16:23:45;;;;;;;3.12;2.52;;;;;;;20.91;100.00;99838.99;5063422;57;1138754;-67
2023/07/31 16:28:51;;;;;;;3.98;2.55;;;;;;;20.89;100.00;99824.41;5043236;56;1138879;-66
2023/07/31 16:33:58;;;;;;;4.57;2.53;;;;;;;20.91;100.00;99825.03;5043682;57;1138943;-65
2023/07/31 16:39:03;;;;;;;9.15;2.42;;;;;;;20.86;100.00;99822.62;5063259;57;1138627;-68
2023/07/31 16:44:09;;;;;;;3.70;1.98;;;;;;;20.82;100.00;99820.03;5043361;57;1138764;-66
2023/07/31 16:49:14;;;;;;;3.87;2.75;;;;;;;20.81;100.00;99825.09;5083896;56;1138622;-66
2023/07/31 16:54:20;;;;;;;3.10;2.77;;;;;;;20.78;100.00;99826.86;5161168;56;1138814;-67
2023/07/31 16:59:26;;;;;;;4.25;2.98;;;;;;;20.75;100.00;99818.68;5135377;56;1138721;-66
2023/07/31 17:04:32;;;;;;;5.28;3.00;;;;;;;20.76;100.00;99813.62;5123614;56;1138787;-65
2023/07/31 17:09:37;;;;;;;4.47;2.17;;;;;;;20.79;100.00;99811.84;5147841;56;1138802;-67
2023/07/31 17:14:43;;;;;;;3.58;2.17;;;;;;;20.85;100.00;99803.50;5133354;56;1138991;-67
2023/07/31 17:19:49;;;;;;;3.60;2.10;;;;;;;20.89;100.00;99806.94;5143879;55;1138805;-67
2023/07/31 17:24:55;;;;;;;2.42;2.17;;;;;;;20.90;100.00;99811.28;5163882;56;1139054;-67
2023/07/31 17:30:00;;;;;;;3.83;2.10;;;;;;;20.87;100.00;99813.02;5110664;56;1138852;-67
2023/07/31 17:35:08;;;;;;;5.57;2.57;;;;;;;20.83;100.00;99817.14;5117281;56;1139053;-66
2023/07/31 17:40:13;;;;;;;2.98;2.60;;;;;;;20.79;100.00;99823.11;5131363;56;1138499;-67
2023/07/31 17:45:29;;;;;;;6.50;2.70;;;;;;;20.76;100.00;99832.43;5116299;56;1139633;-67
2023/07/31 17:50:51;;;;;;;2.27;2.08;;;;;;;20.71;100.00;99818.25;5048428;56;1138892;-68
2023/07/31 17:55:56;;;;;;;;;;;;;;;20.68;100.00;99818.64;5116361;56;1138819;-66
2023/07/31 18:01:02;;;;;;;3.85;2.12;;;;;;;20.64;100.00;99818.72;5114942;56;976085;-66
2023/07/31 18:06:07;;;;;;;6.58;2.30;;;;;;;20.62;100.00;99815.41;5059387;56;1136896;-66
2023/07/31 18:11:15;;;;;;;3.75;2.20;;;;;;;20.61;100.00;99818.32;5077976;57;1138967;-65
2023/07/31 18:16:21;;;;;;;5.67;2.70;;;;;;;20.57;100.00;99813.02;5058012;57;1139253;-66
2023/07/31 18:21:26;;;;;;;6.67;4.33;;;;;;;20.55;100.00;99816.42;5056383;57;1139087;-66
2023/07/31 18:26:32;;;;;;;13.83;10.00;;;;;;;20.52;100.00;99809.59;5107891;56;1138910;-66
2023/07/31 18:31:38;;;;;;;7.97;5.08;;;;;;;20.51;100.00;99801.73;5086464;56;1142838;-67
2023/07/31 18:36:44;;;;;;;6.58;4.55;;;;;;;20.49;100.00;99805.13;5011208;57;1138639;-67
2023/07/31 18:41:52;;;;;;;11.74;3.58;;;;;;;20.44;100.00;99797.69;5059476;57;1138839;-67
2023/07/31 18:46:58;;;;;;;6.30;3.93;;;;;;;20.38;100.00;99785.05;5092175;57;1140843;-65
2023/07/31 18:52:03;;;;;;;4.97;3.55;;;;;;;20.34;100.00;99777.86;5056264;57;1138787;-65
2023/07/31 18:57:09;;;;;;;6.17;4.25;;;;;;;20.32;100.00;99775.06;5097456;55;1138477;-65
2023/07/31 19:02:15;;;;;;;4.40;3.62;;;;;;;20.31;100.00;99776.11;5153851;56;1138461;-65
2023/07/31 19:07:21;;;;;;;15.43;11.10;;;;;;;20.24;100.00;99776.59;5098085;56;1138923;-65
2023/07/31 19:12:26;;;;;;;17.05;7.33;;;;;;;20.17;100.00;99779.22;5138769;56;1142991;-64
2023/07/31 19:17:32;;;;;;;5.00;3.47;;;;;;;20.11;100.00;99778.70;5159520;56;1141288;-64
2023/07/31 19:22:37;;;;;;;5.67;2.83;;;;;;;20.11;100.00;99772.50;5126834;56;1139353;-65
2023/07/31 19:27:43;;;;;;;8.28;3.15;;;;;;;20.08;100.00;99766.17;5027294;57;1139112;-65
2023/07/31 19:32:48;;;;;;;4.60;3.62;;;;;;;20.05;100.00;99760.69;5052588;56;1138558;-64
2023/07/31 19:37:54;;;;;;;3.77;2.87;;;;;;;19.97;100.00;99754.98;5063015;57;1138679;-64
2023/07/31 19:43:00;;;;;;;7.03;2.93;;;;;;;19.92;100.00;99743.17;5085334;56;1138644;-66
2023/07/31 19:48:05;;;;;;;5.77;3.07;;;;;;;19.86;100.00;99738.07;5038449;57;1138708;-65
2023/07/31 19:53:11;;;;;;;4.17;2.90;;;;;;;19.81;100.00;99731.15;5147688;56;1138717;-64
2023/07/31 19:58:16;;;;;;;4.97;2.05;;;;;;;19.81;100.00;99728.98;5110293;56;1138607;-66
2023/07/31 20:03:22;;;;;;;6.40;2.80;;;;;;;19.82;100.00;99730.12;5043998;57;1138932;-64
2023/07/31 20:08:27;;;;;;;5.90;2.80;;;;;;;19.78;100.00;99732.05;5116080;56;1138969;-64
2023/07/31 20:13:33;;;;;;;9.80;2.80;;;;;;;19.76;100.00;99720.17;5127801;56;1138622;-63
2023/07/31 20:18:43;;;;;;;4.67;2.47;;;;;;;19.75;100.00;99721.19;5124179;56;1138726;-66
2023/07/31 20:23:47;;;;;;;2.65;2.42;;;;;;;19.76;100.00;99712.12;5137515;56;1148224;-67
2023/07/31 20:28:52;;;;;;;6.10;2.75;;;;;;;19.76;100.00;99715.31;5060809;56;1138853;-66
2023/07/31 20:33:58;;;;;;;3.50;3.08;;;;;;;19.70;100.00;99712.93;5059935;56;1139071;-66
2023/07/31 20:39:05;;;;;;;3.65;2.70;;;;;;;19.70;100.00;99709.42;5055113;56;1138976;-65
2023/07/31 20:44:10;;;;;;;3.52;2.50;;;;;;;19.68;100.00;99707.44;5075035;56;1138763;-65
2023/07/31 20:49:16;;;;;;;4.53;2.75;;;;;;;19.68;100.00;99701.56;5077857;56;1138953;-65
2023/07/31 20:54:22;;;;;;;9.40;2.90;;;;;;;19.70;100.00;99694.66;5054668;56;1138601;-64
2023/07/31 20:59:27;;;;;;;5.35;2.87;;;;;;;19.67;100.00;99677.09;5074644;56;1138520;-65
2023/07/31 21:04:33;;;;;;;3.55;3.10;;;;;;;19.68;100.00;99671.22;5056706;56;1138434;-65
2023/07/31 21:09:38;;;;;;;3.22;2.00;;;;;;;19.67;100.00;99665.02;5054054;55;1138873;-65
2023/07/31 21:14:44;;;;;;;4.70;2.72;;;;;;;19.65;100.00;99658.52;5092036;56;1138672;-67
2023/07/31 21:19:50;;;;;;;5.00;2.70;;;;;;;19.64;100.00;99662.22;5065322;56;1138867;-65
2023/07/31 21:24:55;;;;;;;5.50;2.87;;;;;;;19.63;100.00;99667.27;5062683;56;1138862;-66
2023/07/31 21:30:02;;;;;;;5.67;2.90;;;;;;;19.64;100.00;99665.42;5070947;56;1139119;-66
2023/07/31 21:35:08;;;;;;;6.75;3.35;;;;;;;19.68;100.00;99657.30;5043424;56;1138804;-66
2023/07/31 21:40:14;;;;;;;4.55;2.40;;;;;;;19.65;100.00;99658.52;5027554;57;1139033;-66
2023/07/31 21:45:22;;;;;;;5.20;2.50;;;;;;;19.65;100.00;99653.15;5094635;56;1138816;-66
2023/07/31 21:50:27;;;;;;;3.08;2.70;;;;;;;19.65;100.00;99654.49;5115622;56;1138600;-66
2023/07/31 21:55:32;;;;;;;3.58;2.47;;;;;;;19.64;100.00;99652.83;5043446;57;1138975;-66
2023/07/31 22:00:38;;;;;;;5.55;3.05;;;;;;;19.64;100.00;99650.15;5062711;57;1139095;-67
2023/07/31 22:05:43;;;;;;;4.25;3.22;;;;;;;19.65;100.00;99642.42;5042812;57;1175556;-65
2023/07/31 22:10:49;;;;;;;3.20;2.90;;;;;;;19.64;100.00;99647.98;5043412;57;1139002;-66
2023/07/31 22:15:55;;;;;;;3.98;2.50;;;;;;;19.60;100.00;99628.77;5043665;57;1139217;-65
2023/07/31 22:21:00;;;;;;;8.13;3.02;;;;;;;19.62;100.00;99616.50;5063493;57;1138694;-65
2023/07/31 22:26:06;;;;;;;7.35;2.45;;;;;;;19.64;100.00;99613.11;5041648;57;1138938;-66
2023/07/31 22:31:11;;;;;;;7.10;3.08;;;;;;;19.60;100.00;99605.13;5085127;56;1138981;-66
2023/07/31 22:36:17;;;;;;;3.20;2.42;;;;;;;19.62;100.00;99605.77;5147199;56;1138659;-65
2023/07/31 22:41:23;;;;;;;6.20;2.65;;;;;;;19.61;100.00;99606.28;5127747;56;1138819;-65
2023/07/31 22:46:28;;;;;;;3.42;2.60;;;;;;;19.62;100.00;99598.55;5127646;56;1138899;-65
2023/07/31 22:51:34;;;;;;;4.53;2.10;;;;;;;19.64;100.00;99594.33;5116550;56;1138813;-65
2023/07/31 22:56:40;;;;;;;3.25;2.52;;;;;;;19.64;100.00;99592.47;5043707;56;1138675;-65
2023/07/31 23:01:45;;;;;;;2.40;2.20;;;;;;;19.65;100.00;99591.96;5044162;56;1138780;-66